createdAt,value
2022-09-10T00:00:39.242Z,1.1
2022-09-10T00:01:39.668Z,0.9
2022-09-10T00:02:39.474Z,0.4
2022-09-10T00:03:39.198Z,0.7
2022-09-10T00:04:39.973Z,1.2
2022-09-10T00:05:41.647Z,0.9
2022-09-10T00:06:40.015Z,0.5
2022-09-10T00:07:39.341Z,0.8
2022-09-10T00:08:39.299Z,0.9
2022-09-10T00:09:39.799Z,0.4
2022-09-10T00:10:43.590Z,0.4
2022-09-10T00:11:39.973Z,0.3
2022-09-10T00:12:39.208Z,0.3
2022-09-10T00:13:40.022Z,0.3
2022-09-10T00:14:39.731Z,1.1
2022-09-10T00:15:43.706Z,0.4
2022-09-10T00:16:39.377Z,0.3
2022-09-10T00:17:39.155Z,0.4
2022-09-10T00:18:40.008Z,0.5
2022-09-10T00:19:39.562Z,0.7
2022-09-10T00:20:42.615Z,0.2
2022-09-10T00:21:39.294Z,0.4
2022-09-10T00:22:39.883Z,1.0
2022-09-10T00:23:39.900Z,0.8
2022-09-10T00:24:39.539Z,1.3
2022-09-10T00:25:39.419Z,0.9
2022-09-10T00:26:39.218Z,0.3
2022-09-10T00:27:39.946Z,0.6
2022-09-10T00:28:40.054Z,0.2
2022-09-10T00:29:39.344Z,0.1
2022-09-10T00:30:43.046Z,0.5
2022-09-10T00:31:39.980Z,0.4
2022-09-10T00:32:39.690Z,0.5
2022-09-10T00:33:39.843Z,0.2
2022-09-10T00:34:39.352Z,0.2
2022-09-10T00:35:39.123Z,0.7
2022-09-10T00:36:40.596Z,1.1
2022-09-10T00:37:39.553Z,0.7
2022-09-10T00:38:39.436Z,0.8
2022-09-10T00:39:39.529Z,0.6
2022-09-10T00:40:40.486Z,0.8
2022-09-10T00:41:40.437Z,0.4
2022-09-10T00:42:40.154Z,0.6
2022-09-10T00:43:55.758Z,0.7
2022-09-10T00:44:43.993Z,0.6
2022-09-10T00:45:40.635Z,0.7
2022-09-10T00:46:44.485Z,0.7
2022-09-10T00:47:39.490Z,1.4
2022-09-10T00:48:39.371Z,0.3
2022-09-10T00:49:44.271Z,0.5
2022-09-10T00:50:40.991Z,1.0
2022-09-10T00:51:39.720Z,0.1
2022-09-10T00:52:40.103Z,0.7
2022-09-10T00:53:39.125Z,0.1
2022-09-10T00:54:41.382Z,0.3
2022-09-10T00:55:40.114Z,0.1
2022-09-10T00:56:39.716Z,0.4
2022-09-10T00:57:39.401Z,0.2
2022-09-10T00:58:40.494Z,0.5
2022-09-10T00:59:41.159Z,0.3
2022-09-10T01:00:40.113Z,0.7
2022-09-10T01:01:39.441Z,0.2
2022-09-10T01:02:39.259Z,0.0
2022-09-10T01:03:39.773Z,0.6
2022-09-10T01:04:39.751Z,0.9
2022-09-10T01:05:39.637Z,0.5
2022-09-10T01:06:39.925Z,0.3
2022-09-10T01:07:39.222Z,1.0
2022-09-10T01:08:39.862Z,0.4
2022-09-10T01:09:39.704Z,0.5
2022-09-10T01:10:44.147Z,0.4
2022-09-10T01:11:49.957Z,0.7
2022-09-10T01:12:46.407Z,0.4
2022-09-10T01:13:44.420Z,0.8
2022-09-10T01:14:52.958Z,0.1
2022-09-10T01:15:44.075Z,0.8
2022-09-10T01:16:49.445Z,0.2
2022-09-10T01:17:56.409Z,0.2
2022-09-10T01:18:44.375Z,0.1
2022-09-10T01:19:57.335Z,0.4
2022-09-10T01:20:55.898Z,0.8
2022-09-10T01:21:55.451Z,0.9
2022-09-10T01:22:57.837Z,0.3
2022-09-10T01:23:57.323Z,0.4
2022-09-10T01:24:52.913Z,0.4
2022-09-10T01:25:52.407Z,0.6
2022-09-10T01:26:57.909Z,0.2
2022-09-10T01:27:44.410Z,0.3
2022-09-10T01:28:44.202Z,0.4
2022-09-10T01:29:44.063Z,0.8
2022-09-10T01:30:43.026Z,0.8
2022-09-10T01:31:44.067Z,0.3
2022-09-10T01:32:52.892Z,0.5
2022-09-10T01:33:46.781Z,0.3
2022-09-10T01:34:42.664Z,0.7
2022-09-10T01:35:59.424Z,0.7
2022-09-10T01:36:41.226Z,0.3
2022-09-10T01:37:40.552Z,0.2
2022-09-10T01:38:39.750Z,0.8
2022-09-10T01:39:39.443Z,0.4
2022-09-10T01:40:39.656Z,0.3
2022-09-10T01:41:39.493Z,0.5
2022-09-10T01:42:39.208Z,0.7
2022-09-10T01:43:39.155Z,0.4
2022-09-10T01:44:46.491Z,0.3
2022-09-10T01:45:53.444Z,0.4
2022-09-10T01:46:43.883Z,0.6
2022-09-10T01:47:46.901Z,0.1
2022-09-10T01:48:46.536Z,0.2
2022-09-10T01:49:44.463Z,0.0
2022-09-10T01:50:48.814Z,0.4
2022-09-10T01:51:44.079Z,0.6
2022-09-10T01:52:43.877Z,0.6
2022-09-10T01:53:53.506Z,0.2
2022-09-10T01:54:49.396Z,0.3
2022-09-10T01:55:44.212Z,0.2
2022-09-10T01:56:44.006Z,0.4
2022-09-10T01:57:49.466Z,0.7
2022-09-10T01:58:40.889Z,0.2
2022-09-10T01:59:44.340Z,0.4
2022-09-10T02:00:41.742Z,0.3
2022-09-10T02:01:44.839Z,0.2
2022-09-10T02:02:47.278Z,0.1
2022-09-10T02:03:41.346Z,0.3
2022-09-10T02:04:41.588Z,0.2
2022-09-10T02:05:40.869Z,0.0
2022-09-10T02:06:40.404Z,0.7
2022-09-10T02:07:39.662Z,0.3
2022-09-10T02:08:40.325Z,0.5
2022-09-10T02:09:39.431Z,0.4
2022-09-10T02:10:52.201Z,0.2
2022-09-10T02:11:43.906Z,0.7
2022-09-10T02:12:39.528Z,0.6
2022-09-10T02:13:39.487Z,0.7
2022-09-10T02:14:39.082Z,0.0
2022-09-10T02:15:39.976Z,0.2
2022-09-10T02:16:41.300Z,0.1
2022-09-10T02:17:39.867Z,0.3
2022-09-10T02:18:39.779Z,0.6
2022-09-10T02:19:39.156Z,0.3
2022-09-10T02:20:40.366Z,0.6
2022-09-10T02:21:39.431Z,0.2
2022-09-10T02:22:41.353Z,0.1
2022-09-10T02:23:41.178Z,0.4
2022-09-10T02:24:39.709Z,0.3
2022-09-10T02:25:39.595Z,0.2
2022-09-10T02:26:40.664Z,0.6
2022-09-10T02:27:39.142Z,0.5
2022-09-10T02:28:39.813Z,0.3
2022-09-10T02:29:39.901Z,0.4
2022-09-10T02:30:39.489Z,0.9
2022-09-10T02:31:39.879Z,0.1
2022-09-10T02:32:39.025Z,0.2
2022-09-10T02:33:39.709Z,0.3
2022-09-10T02:34:39.456Z,0.5
2022-09-10T02:35:39.278Z,0.1
2022-09-10T02:36:39.121Z,0.4
2022-09-10T02:37:39.795Z,0.1
2022-09-10T02:38:39.740Z,0.2
2022-09-10T02:39:39.489Z,0.5
2022-09-10T02:40:39.236Z,0.2
2022-09-10T02:41:39.078Z,0.5
2022-09-10T02:42:39.638Z,0.1
2022-09-10T02:43:39.403Z,0.3
2022-09-10T02:44:39.266Z,0.6
2022-09-10T02:45:39.080Z,0.7
2022-09-10T02:46:39.763Z,0.3
2022-09-10T02:47:39.563Z,1.1
2022-09-10T02:48:39.527Z,0.3
2022-09-10T02:49:39.187Z,0.1
2022-09-10T02:50:38.975Z,0.6
2022-09-10T02:51:39.640Z,0.1
2022-09-10T02:52:39.459Z,0.1
2022-09-10T02:53:39.239Z,0.0
2022-09-10T02:54:39.127Z,0.4
2022-09-10T02:55:39.724Z,0.2
2022-09-10T02:56:39.525Z,0.0
2022-09-10T02:57:39.368Z,0.3
2022-09-10T02:58:39.401Z,0.2
2022-09-10T02:59:38.935Z,0.5
2022-09-10T03:00:39.971Z,0.0
2022-09-10T03:01:39.487Z,0.3
2022-09-10T03:02:39.198Z,0.4
2022-09-10T03:03:39.106Z,0.1
2022-09-10T03:04:39.746Z,0.0
2022-09-10T03:05:39.602Z,0.2
2022-09-10T03:06:39.446Z,0.0
2022-09-10T03:07:39.304Z,0.1
2022-09-10T03:08:39.131Z,0.1
2022-09-10T03:09:39.556Z,0.5
2022-09-10T03:10:39.391Z,0.4
2022-09-10T03:11:39.241Z,0.4
2022-09-10T03:12:38.972Z,0.3
2022-09-10T03:13:39.876Z,0.1
2022-09-10T03:14:39.508Z,0.1
2022-09-10T03:15:41.020Z,0.3
2022-09-10T03:16:39.156Z,0.0
2022-09-10T03:17:39.737Z,0.2
2022-09-10T03:18:40.456Z,0.1
2022-09-10T03:19:39.355Z,0.0
2022-09-10T03:20:39.167Z,0.3
2022-09-10T03:21:39.263Z,0.5
2022-09-10T03:22:39.651Z,0.1
2022-09-10T03:23:40.396Z,0.2
2022-09-10T03:24:39.273Z,0.1
2022-09-10T03:25:39.076Z,0.3
2022-09-10T03:26:39.700Z,0.2
2022-09-10T03:27:39.531Z,0.0
2022-09-10T03:28:39.913Z,0.2
2022-09-10T03:29:39.101Z,0.0
2022-09-10T03:30:38.909Z,0.3
2022-09-10T03:31:39.698Z,0.2
2022-09-10T03:32:39.578Z,0.0
2022-09-10T03:33:39.852Z,0.2
2022-09-10T03:34:39.041Z,0.2
2022-09-10T03:35:39.693Z,0.3
2022-09-10T03:36:39.528Z,0.3
2022-09-10T03:37:39.402Z,0.1
2022-09-10T03:38:39.636Z,0.0
2022-09-10T03:39:39.033Z,0.4
2022-09-10T03:40:39.761Z,0.2
2022-09-10T03:41:39.428Z,0.3
2022-09-10T03:42:39.263Z,0.0
2022-09-10T03:43:39.031Z,0.1
2022-09-10T03:44:39.749Z,0.2
2022-09-10T03:45:39.502Z,0.1
2022-09-10T03:46:39.336Z,0.1
2022-09-10T03:47:39.121Z,0.2
2022-09-10T03:48:39.029Z,0.2
2022-09-10T03:49:39.660Z,0.0
2022-09-10T03:50:39.446Z,0.2
2022-09-10T03:51:39.203Z,0.4
2022-09-10T03:52:39.038Z,0.0
2022-09-10T03:53:39.693Z,0.9
2022-09-10T03:54:39.507Z,0.2
2022-09-10T03:55:41.876Z,0.2
2022-09-10T03:56:39.129Z,0.2
2022-09-10T03:57:39.775Z,0.3
2022-09-10T03:58:40.158Z,0.5
2022-09-10T03:59:39.438Z,0.2
2022-09-10T04:00:39.417Z,0.2
2022-09-10T04:01:39.138Z,0.1
2022-09-10T04:02:39.674Z,0.3
2022-09-10T04:03:39.485Z,0.1
2022-09-10T04:04:39.844Z,0.7
2022-09-10T04:05:39.633Z,0.3
2022-09-10T04:06:39.941Z,0.4
2022-09-10T04:07:39.608Z,0.4
2022-09-10T04:08:39.627Z,0.0
2022-09-10T04:09:39.178Z,0.2
2022-09-10T04:10:39.216Z,0.0
2022-09-10T04:11:39.696Z,0.0
2022-09-10T04:12:39.477Z,0.1
2022-09-10T04:13:39.281Z,0.0
2022-09-10T04:14:39.069Z,0.0
2022-09-10T04:15:42.121Z,0.0
2022-09-10T04:16:39.653Z,0.0
2022-09-10T04:17:39.434Z,0.2
2022-09-10T04:18:39.300Z,0.0
2022-09-10T04:19:39.017Z,0.0
2022-09-10T04:20:39.644Z,0.0
2022-09-10T04:21:39.457Z,0.0
2022-09-10T04:22:39.201Z,0.0
2022-09-10T04:23:39.085Z,0.4
2022-09-10T04:24:39.739Z,0.0
2022-09-10T04:25:39.549Z,0.0
2022-09-10T04:26:39.422Z,0.0
2022-09-10T04:27:39.207Z,0.0
2022-09-10T04:28:39.195Z,0.1
2022-09-10T04:29:39.615Z,0.2
2022-09-10T04:30:39.402Z,0.0
2022-09-10T04:31:39.268Z,0.0
2022-09-10T04:32:39.119Z,0.4
2022-09-10T04:33:39.805Z,0.0
2022-09-10T04:34:39.536Z,0.0
2022-09-10T04:35:39.355Z,0.0
2022-09-10T04:36:39.163Z,0.0
2022-09-10T04:37:38.938Z,0.1
2022-09-10T04:38:39.697Z,0.2
2022-09-10T04:39:39.476Z,0.1
2022-09-10T04:40:39.220Z,0.0
2022-09-10T04:41:39.017Z,0.4
2022-09-10T04:42:39.722Z,0.1
2022-09-10T04:43:39.544Z,0.1
2022-09-10T04:44:39.340Z,0.0
2022-09-10T04:45:39.164Z,0.3
2022-09-10T04:46:38.965Z,0.1
2022-09-10T04:47:39.580Z,0.0
2022-09-10T04:48:39.482Z,0.0
2022-09-10T04:49:39.284Z,0.0
2022-09-10T04:50:49.997Z,0.0
2022-09-10T04:51:39.714Z,0.3
2022-09-10T04:52:39.506Z,0.2
2022-09-10T04:53:39.957Z,0.0
2022-09-10T04:54:39.180Z,0.0
2022-09-10T04:55:40.016Z,0.3
2022-09-10T04:56:39.902Z,0.6
2022-09-10T04:57:39.405Z,0.0
2022-09-10T04:58:39.512Z,0.1
2022-09-10T04:59:39.000Z,0.0
2022-09-10T05:00:39.882Z,0.4
2022-09-10T05:01:39.567Z,0.0
2022-09-10T05:02:39.308Z,0.3
2022-09-10T05:03:39.270Z,0.5
2022-09-10T05:04:38.966Z,0.2
2022-09-10T05:05:39.736Z,0.3
2022-09-10T05:06:39.375Z,0.3
2022-09-10T05:07:39.212Z,0.2
2022-09-10T05:08:39.174Z,0.3
2022-09-10T05:09:39.706Z,0.0
2022-09-10T05:10:39.925Z,0.1
2022-09-10T05:11:39.358Z,0.1
2022-09-10T05:12:39.143Z,0.6
2022-09-10T05:13:39.108Z,0.1
2022-09-10T05:14:39.575Z,0.3
2022-09-10T05:15:39.425Z,0.0
2022-09-10T05:16:39.505Z,0.1
2022-09-10T05:17:39.089Z,0.3
2022-09-10T05:18:39.843Z,0.3
2022-09-10T05:19:39.583Z,0.4
2022-09-10T05:20:39.357Z,0.0
2022-09-10T05:21:39.164Z,0.2
2022-09-10T05:22:40.754Z,0.6
2022-09-10T05:23:39.574Z,0.6
2022-09-10T05:24:39.357Z,0.6
2022-09-10T05:25:39.216Z,0.3
2022-09-10T05:26:39.309Z,0.3
2022-09-10T05:27:39.747Z,0.2
2022-09-10T05:28:39.594Z,0.2
2022-09-10T05:29:39.366Z,0.8
2022-09-10T05:30:39.097Z,0.5
2022-09-10T05:31:39.021Z,0.5
2022-09-10T05:32:39.579Z,0.0
2022-09-10T05:33:39.431Z,0.3
2022-09-10T05:34:39.155Z,0.1
2022-09-10T05:35:39.016Z,0.3
2022-09-10T05:36:39.665Z,0.7
2022-09-10T05:37:39.551Z,0.6
2022-09-10T05:38:40.155Z,0.2
2022-09-10T05:39:39.181Z,0.1
2022-09-10T05:40:41.108Z,0.6
2022-09-10T05:41:39.542Z,0.4
2022-09-10T05:42:39.337Z,0.4
2022-09-10T05:43:39.143Z,0.3
2022-09-10T05:44:38.938Z,0.5
2022-09-10T05:45:39.721Z,0.5
2022-09-10T05:46:39.421Z,0.3
2022-09-10T05:47:39.236Z,0.6
2022-09-10T05:48:41.634Z,0.5
2022-09-10T05:49:39.681Z,0.5
2022-09-10T05:50:39.480Z,0.4
2022-09-10T05:51:39.316Z,0.5
2022-09-10T05:52:39.264Z,0.6
2022-09-10T05:53:38.971Z,0.7
2022-09-10T05:54:39.657Z,0.6
2022-09-10T05:55:39.500Z,0.6
2022-09-10T05:56:39.260Z,0.5
2022-09-10T05:57:39.078Z,0.3
2022-09-10T05:58:39.832Z,0.8
2022-09-10T05:59:39.498Z,1.0
2022-09-10T06:00:39.321Z,0.6
2022-09-10T06:01:39.112Z,0.2
2022-09-10T06:02:38.993Z,0.8
2022-09-10T06:03:39.818Z,0.3
2022-09-10T06:04:39.471Z,0.7
2022-09-10T06:05:39.265Z,0.4
2022-09-10T06:06:39.124Z,0.3
2022-09-10T06:07:39.302Z,0.4
2022-09-10T06:08:39.203Z,0.3
2022-09-10T06:09:38.949Z,0.8
2022-09-10T06:10:39.578Z,0.5
2022-09-10T06:11:39.513Z,0.5
2022-09-10T06:12:39.198Z,0.5
2022-09-10T06:13:39.325Z,0.4
2022-09-10T06:14:39.782Z,0.5
2022-09-10T06:15:39.527Z,0.2
2022-09-10T06:16:39.533Z,0.7
2022-09-10T06:17:39.156Z,0.6
2022-09-10T06:18:39.110Z,0.5
2022-09-10T06:19:39.582Z,0.7
2022-09-10T06:20:39.430Z,0.7
2022-09-10T06:21:39.219Z,0.6
2022-09-10T06:22:39.439Z,0.3
2022-09-10T06:23:39.823Z,0.4
2022-09-10T06:24:39.676Z,0.4
2022-09-10T06:25:39.388Z,0.4
2022-09-10T06:26:39.190Z,0.2
2022-09-10T06:27:39.006Z,0.8
2022-09-10T06:28:40.039Z,0.6
2022-09-10T06:29:39.589Z,0.8
2022-09-10T06:30:39.367Z,0.1
2022-09-10T06:31:39.105Z,0.7
2022-09-10T06:32:39.819Z,0.5
2022-09-10T06:33:39.612Z,0.3
2022-09-10T06:34:39.404Z,0.3
2022-09-10T06:35:39.379Z,0.2
2022-09-10T06:36:39.025Z,0.4
2022-09-10T06:37:39.688Z,0.4
2022-09-10T06:38:40.068Z,0.1
2022-09-10T06:39:39.669Z,0.5
2022-09-10T06:40:44.060Z,0.6
2022-09-10T06:41:38.913Z,0.5
2022-09-10T06:42:39.672Z,0.5
2022-09-10T06:43:39.565Z,0.2
2022-09-10T06:44:39.315Z,0.2
2022-09-10T06:45:39.160Z,0.0
2022-09-10T06:47:39.031Z,0.3
2022-09-10T06:48:19.145Z,0.5
2022-09-10T06:48:43.271Z,0.5
2022-09-10T06:49:39.169Z,0.8
2022-09-10T06:50:38.975Z,0.6
2022-09-10T06:51:39.944Z,0.1
2022-09-10T06:52:39.531Z,0.9
2022-09-10T06:53:39.958Z,0.8
2022-09-10T06:54:39.130Z,0.1
2022-09-10T06:55:38.954Z,0.9
2022-09-10T06:56:39.611Z,0.9
2022-09-10T06:57:39.393Z,1.1
2022-09-10T06:58:39.362Z,0.3
2022-09-10T06:59:39.021Z,0.3
2022-09-10T07:00:39.818Z,0.8
2022-09-10T07:01:39.921Z,0.9
2022-09-10T07:02:39.340Z,1.0
2022-09-10T07:03:39.631Z,0.8
2022-09-10T07:04:38.949Z,1.1
2022-09-10T07:05:39.660Z,0.6
2022-09-10T07:06:39.446Z,1.1
2022-09-10T07:07:39.200Z,0.4
2022-09-10T07:08:39.233Z,0.6
2022-09-10T07:09:39.814Z,0.2
2022-09-10T07:10:39.979Z,1.0
2022-09-10T07:11:41.760Z,0.5
2022-09-10T07:12:39.180Z,1.0
2022-09-10T07:13:39.099Z,0.5
2022-09-10T07:14:39.689Z,1.2
2022-09-10T07:15:45.576Z,0.5
2022-09-10T07:16:39.289Z,1.0
2022-09-10T07:17:39.088Z,0.7
2022-09-10T07:18:39.192Z,0.6
2022-09-10T07:19:39.615Z,0.4
2022-09-10T07:20:40.319Z,0.7
2022-09-10T07:21:39.404Z,0.8
2022-09-10T07:22:39.046Z,1.3
2022-09-10T07:23:40.072Z,0.7
2022-09-10T07:24:39.488Z,0.4
2022-09-10T07:25:39.904Z,0.5
2022-09-10T07:26:39.230Z,0.6
2022-09-10T07:27:38.964Z,0.3
2022-09-10T07:28:40.363Z,0.7
2022-09-10T07:29:39.461Z,0.6
2022-09-10T07:30:40.021Z,1.0
2022-09-10T07:31:39.150Z,0.8
2022-09-10T07:32:39.773Z,0.9
2022-09-10T07:33:39.778Z,1.0
2022-09-10T07:34:39.511Z,1.0
2022-09-10T07:35:39.135Z,0.8
2022-09-10T07:36:39.006Z,0.6
2022-09-10T07:37:39.768Z,1.1
2022-09-10T07:38:40.334Z,0.5
2022-09-10T07:39:39.371Z,1.0
2022-09-10T07:40:39.206Z,0.6
2022-09-10T07:41:38.950Z,1.0
2022-09-10T07:42:39.594Z,0.5
2022-09-10T07:43:39.902Z,0.3
2022-09-10T07:44:39.181Z,0.7
2022-09-10T07:45:39.491Z,0.8
2022-09-10T07:46:39.732Z,0.6
2022-09-10T07:47:39.100Z,1.1
2022-09-10T07:48:39.899Z,0.9
2022-09-10T07:49:39.592Z,1.0
2022-09-10T07:50:42.437Z,1.3
2022-09-10T07:51:39.902Z,2.6
2022-09-10T07:52:39.172Z,2.5
2022-09-10T07:53:47.572Z,2.1
2022-09-10T07:54:39.425Z,2.6
2022-09-10T07:55:39.213Z,2.6
2022-09-10T07:56:39.017Z,2.2
2022-09-10T07:57:39.823Z,2.1
2022-09-10T07:58:39.688Z,1.9
2022-09-10T07:59:39.363Z,2.5
2022-09-10T08:00:39.216Z,2.3
2022-09-10T08:01:39.023Z,2.0
2022-09-10T08:02:43.090Z,1.9
2022-09-10T08:03:39.808Z,1.4
2022-09-10T08:04:39.266Z,1.6
2022-09-10T08:05:39.124Z,2.5
2022-09-10T08:06:39.851Z,2.0
2022-09-10T08:07:39.930Z,1.9
2022-09-10T08:08:39.547Z,2.5
2022-09-10T08:09:39.301Z,1.8
2022-09-10T08:10:39.165Z,2.0
2022-09-10T08:11:40.217Z,3.2
2022-09-10T08:12:40.095Z,2.2
2022-09-10T08:13:46.863Z,1.5
2022-09-10T08:14:39.875Z,2.0
2022-09-10T08:15:42.633Z,1.9
2022-09-10T08:16:43.828Z,2.1
2022-09-10T08:17:39.456Z,1.7
2022-09-10T08:18:39.429Z,1.6
2022-09-10T08:19:39.342Z,1.6
2022-09-10T08:20:40.122Z,1.9
2022-09-10T08:21:39.598Z,1.5
2022-09-10T08:22:39.364Z,2.0
2022-09-10T08:23:39.841Z,2.4
2022-09-10T08:24:39.529Z,1.9
2022-09-10T08:25:39.237Z,2.2
2022-09-10T08:26:39.050Z,2.4
2022-09-10T08:27:39.756Z,1.1
2022-09-10T08:28:39.720Z,1.7
2022-09-10T08:29:39.822Z,2.0
2022-09-10T08:30:39.169Z,2.1
2022-09-10T08:31:38.962Z,2.1
2022-09-10T08:32:39.655Z,1.4
2022-09-10T08:33:40.274Z,1.9
2022-09-10T08:34:40.482Z,0.7
2022-09-10T08:35:39.138Z,1.3
2022-09-10T08:36:39.802Z,2.8
2022-09-10T08:37:39.582Z,2.7
2022-09-10T08:38:40.617Z,2.3
2022-09-10T08:39:39.370Z,1.9
2022-09-10T08:40:42.043Z,2.0
2022-09-10T08:41:50.488Z,1.9
2022-09-10T08:42:45.436Z,1.9
2022-09-10T08:43:50.947Z,2.0
2022-09-10T08:44:59.828Z,1.8
2022-09-10T08:45:39.386Z,2.6
2022-09-10T08:46:46.633Z,2.1
2022-09-10T08:47:55.229Z,2.0
2022-09-10T08:48:39.489Z,2.1
2022-09-10T08:49:43.980Z,2.4
2022-09-10T08:50:53.486Z,2.0
2022-09-10T08:51:52.495Z,2.0
2022-09-10T08:52:42.598Z,2.3
2022-09-10T08:53:54.885Z,2.0
2022-09-10T08:54:46.500Z,2.3
2022-09-10T08:55:41.258Z,2.7
2022-09-10T08:56:40.098Z,2.6
2022-09-10T08:57:42.932Z,2.1
2022-09-10T08:58:41.659Z,3.0
2022-09-10T08:59:41.460Z,3.7
2022-09-10T09:00:41.476Z,3.8
2022-09-10T09:01:46.574Z,3.7
2022-09-10T09:02:48.950Z,3.0
2022-09-10T09:03:45.487Z,3.3
2022-09-10T09:04:42.971Z,3.3
2022-09-10T09:05:47.004Z,3.8
2022-09-10T09:06:45.664Z,3.5
2022-09-10T09:07:39.599Z,4.9
2022-09-10T09:08:43.488Z,4.2
2022-09-10T09:09:39.940Z,4.1
2022-09-10T09:10:58.991Z,4.1
2022-09-10T09:11:44.204Z,3.2
2022-09-10T09:12:44.099Z,4.1
2022-09-10T09:13:49.472Z,3.3
2022-09-10T09:14:56.516Z,2.6
2022-09-10T09:15:44.490Z,3.3
2022-09-10T09:16:44.253Z,3.0
2022-09-10T09:17:47.036Z,3.2
2022-09-10T09:18:56.927Z,3.1
2022-09-10T09:19:50.040Z,1.8
2022-09-10T09:20:46.163Z,3.4
2022-09-10T09:21:46.901Z,3.3
2022-09-10T09:22:54.886Z,3.5
2022-09-10T09:24:09.362Z,2.7
2022-09-10T09:24:46.983Z,2.9
2022-09-10T09:26:00.730Z,3.2
2022-09-10T09:26:41.963Z,2.9
2022-09-10T09:27:39.389Z,2.8
2022-09-10T09:28:50.497Z,4.0
2022-09-10T09:29:44.357Z,3.2
2022-09-10T09:30:44.379Z,2.7
2022-09-10T09:31:43.340Z,2.6
2022-09-10T09:32:41.199Z,2.6
2022-09-10T09:33:40.064Z,2.9
2022-09-10T09:34:43.023Z,2.9
2022-09-10T09:35:43.952Z,2.7
2022-09-10T09:36:41.964Z,2.6
2022-09-10T09:37:41.177Z,2.6
2022-09-10T09:38:40.846Z,2.5
2022-09-10T09:39:50.050Z,2.7
2022-09-10T09:40:46.707Z,2.2
2022-09-10T09:41:46.557Z,1.8
2022-09-10T09:42:44.689Z,3.5
2022-09-10T09:43:44.381Z,2.5
2022-09-10T09:44:48.661Z,2.4
2022-09-10T09:45:40.240Z,2.2
2022-09-10T09:46:39.330Z,3.3
2022-09-10T09:47:39.228Z,4.9
2022-09-10T09:48:40.137Z,2.5
2022-09-10T09:49:39.670Z,2.4
2022-09-10T09:50:41.996Z,2.0
2022-09-10T09:51:39.322Z,2.1
2022-09-10T09:52:40.292Z,2.8
2022-09-10T09:53:39.955Z,2.9
2022-09-10T09:55:03.088Z,1.8
2022-09-10T09:55:42.757Z,2.1
2022-09-10T09:56:41.180Z,2.7
2022-09-10T09:57:38.994Z,2.1
2022-09-10T09:58:41.903Z,2.1
2022-09-10T09:59:39.477Z,1.4
2022-09-10T10:00:39.440Z,1.6
2022-09-10T10:01:39.979Z,1.7
2022-09-10T10:02:38.950Z,2.2
2022-09-10T10:03:49.796Z,2.2
2022-09-10T10:04:42.346Z,2.0
2022-09-10T10:05:39.355Z,2.2
2022-09-10T10:06:46.018Z,2.4
2022-09-10T10:07:39.755Z,2.8
2022-09-10T10:08:43.197Z,1.7
2022-09-10T10:09:42.057Z,2.0
2022-09-10T10:10:39.144Z,1.9
2022-09-10T10:11:46.695Z,1.7
2022-09-10T10:12:44.533Z,2.8
2022-09-10T10:13:40.694Z,2.6
2022-09-10T10:14:42.226Z,1.9
2022-09-10T10:15:39.923Z,3.1
2022-09-10T10:16:39.722Z,2.7
2022-09-10T10:17:39.567Z,2.0
2022-09-10T10:18:41.196Z,2.6
2022-09-10T10:19:39.375Z,2.4
2022-09-10T10:20:39.391Z,2.7
2022-09-10T10:21:39.142Z,2.1
2022-09-10T10:22:40.007Z,2.6
2022-09-10T10:23:39.725Z,2.3
2022-09-10T10:24:39.966Z,1.6
2022-09-10T10:25:39.416Z,2.1
2022-09-10T10:26:39.107Z,1.8
2022-09-10T10:27:42.353Z,2.1
2022-09-10T10:28:43.762Z,2.7
2022-09-10T10:29:39.487Z,1.8
2022-09-10T10:30:39.744Z,2.6
2022-09-10T10:31:40.468Z,1.8
2022-09-10T10:32:41.970Z,2.7
2022-09-10T10:33:50.015Z,1.6
2022-09-10T10:34:59.038Z,1.2
2022-09-10T10:35:45.796Z,1.7
2022-09-10T10:36:56.942Z,1.3
2022-09-10T10:37:44.589Z,2.1
2022-09-10T10:38:46.890Z,2.8
2022-09-10T10:39:44.126Z,1.9
2022-09-10T10:40:43.944Z,2.0
2022-09-10T10:41:50.489Z,1.0
2022-09-10T10:42:44.413Z,1.8
2022-09-10T10:43:50.016Z,1.4
2022-09-10T10:44:47.007Z,1.8
2022-09-10T10:45:46.531Z,1.5
2022-09-10T10:46:50.532Z,1.8
2022-09-10T10:47:44.328Z,1.5
2022-09-10T10:48:57.912Z,2.1
2022-09-10T10:49:55.510Z,2.1
2022-09-10T10:50:43.749Z,2.8
2022-09-10T10:51:59.025Z,1.6
2022-09-10T10:52:57.442Z,1.7
2022-09-10T10:53:50.026Z,1.5
2022-09-10T10:54:56.939Z,1.4
2022-09-10T10:55:53.594Z,1.8
2022-09-10T10:56:40.991Z,1.6
2022-09-10T10:57:57.462Z,1.8
2022-09-10T10:58:56.955Z,1.5
2022-09-10T10:59:46.530Z,1.5
2022-09-10T11:00:41.415Z,1.7
2022-09-10T11:01:47.156Z,2.1
2022-09-10T11:02:51.644Z,2.1
2022-09-10T11:03:43.979Z,2.3
2022-09-10T11:04:49.527Z,1.6
2022-09-10T11:05:46.904Z,1.4
2022-09-10T11:06:42.444Z,2.6
2022-09-10T11:07:40.107Z,1.7
2022-09-10T11:08:43.919Z,2.2
2022-09-10T11:09:42.895Z,1.7
2022-09-10T11:10:44.116Z,1.6
2022-09-10T11:11:42.778Z,1.7
2022-09-10T11:12:42.581Z,2.1
2022-09-10T11:13:46.538Z,1.6
2022-09-10T11:14:51.787Z,1.9
2022-09-10T11:15:56.876Z,1.4
2022-09-10T11:16:42.927Z,1.1
2022-09-10T11:17:40.871Z,2.0
2022-09-10T11:18:53.512Z,2.2
2022-09-10T11:19:42.253Z,1.4
2022-09-10T11:20:45.494Z,1.6
2022-09-10T11:21:53.401Z,1.6
2022-09-10T11:22:43.459Z,1.3
2022-09-10T11:23:47.528Z,1.2
2022-09-10T11:24:44.400Z,1.7
2022-09-10T11:25:47.019Z,2.3
2022-09-10T11:26:44.028Z,1.8
2022-09-10T11:27:41.158Z,1.9
2022-09-10T11:28:42.528Z,2.4
2022-09-10T11:29:42.220Z,2.4
2022-09-10T11:30:40.391Z,2.7
2022-09-10T11:31:41.979Z,1.8
2022-09-10T11:32:56.029Z,1.5
2022-09-10T11:33:47.045Z,1.0
2022-09-10T11:34:52.527Z,1.4
2022-09-10T11:35:44.528Z,1.3
2022-09-10T11:36:44.164Z,1.8
2022-09-10T11:37:47.066Z,1.2
2022-09-10T11:38:49.552Z,1.8
2022-09-10T11:39:43.156Z,2.2
2022-09-10T11:40:47.031Z,1.5
2022-09-10T11:41:41.096Z,1.0
2022-09-10T11:42:40.063Z,1.9
2022-09-10T11:43:58.606Z,1.0
2022-09-10T11:44:43.886Z,1.0
2022-09-10T11:45:43.963Z,1.9
2022-09-10T11:47:00.580Z,1.6
2022-09-10T11:47:41.910Z,1.6
2022-09-10T11:48:42.756Z,1.3
2022-09-10T11:49:44.491Z,1.8
2022-09-10T11:50:44.265Z,2.3
2022-09-10T11:51:39.812Z,2.0
2022-09-10T11:52:39.076Z,1.7
2022-09-10T11:53:39.284Z,1.5
2022-09-10T11:54:39.579Z,1.5
2022-09-10T11:55:47.039Z,1.0
2022-09-10T11:56:44.025Z,0.8
2022-09-10T11:57:46.581Z,1.3
2022-09-10T11:58:47.526Z,1.0
2022-09-10T11:59:50.024Z,1.0
2022-09-10T12:00:44.241Z,1.2
2022-09-10T12:01:53.088Z,1.5
2022-09-10T12:02:57.011Z,1.6
2022-09-10T12:03:47.062Z,1.7
2022-09-10T12:04:57.455Z,1.5
2022-09-10T12:05:46.214Z,0.8
2022-09-10T12:06:46.542Z,1.4
2022-09-10T12:07:53.515Z,1.6
2022-09-10T12:08:47.526Z,1.0
2022-09-10T12:09:57.450Z,1.0
2022-09-10T12:10:53.036Z,1.8
2022-09-10T12:11:52.533Z,1.2
2022-09-10T12:12:44.323Z,1.8
2022-09-10T12:13:40.288Z,2.1
2022-09-10T12:14:39.771Z,1.3
2022-09-10T12:15:39.286Z,1.8
2022-09-10T12:16:45.191Z,1.5
2022-09-10T12:17:41.669Z,1.7
2022-09-10T12:18:42.769Z,1.9
2022-09-10T12:19:42.468Z,0.8
2022-09-10T12:20:43.612Z,1.2
2022-09-10T12:21:46.501Z,1.4
2022-09-10T12:22:40.509Z,1.4
2022-09-10T12:23:39.615Z,1.0
2022-09-10T12:24:39.479Z,0.6
2022-09-10T12:25:39.102Z,1.5
2022-09-10T12:26:41.847Z,1.1
2022-09-10T12:27:43.933Z,1.4
2022-09-10T12:28:47.064Z,1.7
2022-09-10T12:29:39.688Z,1.7
2022-09-10T12:30:43.971Z,1.0
2022-09-10T12:31:57.957Z,2.1
2022-09-10T12:32:39.564Z,1.6
2022-09-10T12:33:47.039Z,1.9
2022-09-10T12:34:39.459Z,1.8
2022-09-10T12:35:43.477Z,1.6
2022-09-10T12:36:44.562Z,1.7
2022-09-10T12:37:39.519Z,1.2
2022-09-10T12:38:46.743Z,1.7
2022-09-10T12:39:39.650Z,1.0
2022-09-10T12:40:43.333Z,0.7
2022-09-10T12:41:44.076Z,1.0
2022-09-10T12:42:39.022Z,1.3
2022-09-10T12:43:44.529Z,1.1
2022-09-10T12:44:44.187Z,0.9
2022-09-10T12:45:57.656Z,1.0
2022-09-10T12:46:44.293Z,1.4
2022-09-10T12:47:40.368Z,0.8
2022-09-10T12:48:46.837Z,0.5
2022-09-10T12:49:53.106Z,1.4
2022-09-10T12:50:39.769Z,1.3
2022-09-10T12:51:55.529Z,1.0
2022-09-10T12:52:43.765Z,1.6
2022-09-10T12:53:59.031Z,1.0
2022-09-10T12:55:02.089Z,2.1
2022-09-10T12:55:57.477Z,1.4
2022-09-10T12:56:46.523Z,0.9
2022-09-10T12:57:44.584Z,1.4
2022-09-10T12:58:53.092Z,1.4
2022-09-10T12:59:59.028Z,1.1
2022-09-10T13:00:50.033Z,1.0
2022-09-10T13:01:43.842Z,1.2
2022-09-10T13:02:48.452Z,1.4
2022-09-10T13:03:44.268Z,1.0
2022-09-10T13:04:39.229Z,1.4
2022-09-10T13:05:46.577Z,1.9
2022-09-10T13:06:41.840Z,1.2
2022-09-10T13:07:40.871Z,0.8
2022-09-10T13:08:41.615Z,1.1
2022-09-10T13:09:39.380Z,1.3
2022-09-10T13:10:40.088Z,1.6
2022-09-10T13:11:42.845Z,1.5
2022-09-10T13:12:40.499Z,1.0
2022-09-10T13:13:43.875Z,0.6
2022-09-10T13:14:43.999Z,1.8
2022-09-10T13:15:39.050Z,1.7
2022-09-10T13:16:40.449Z,1.3
2022-09-10T13:17:44.346Z,1.8
2022-09-10T13:18:39.266Z,1.7
2022-09-10T13:19:46.537Z,1.6
2022-09-10T13:20:38.935Z,1.0
2022-09-10T13:21:44.456Z,1.2
2022-09-10T13:22:47.028Z,1.7
2022-09-10T13:23:45.996Z,0.8
2022-09-10T13:24:43.827Z,1.2
2022-09-10T13:25:40.446Z,1.0
2022-09-10T13:26:49.509Z,1.0
2022-09-10T13:27:39.567Z,1.0
2022-09-10T13:28:44.014Z,0.4
2022-09-10T13:29:40.519Z,1.1
2022-09-10T13:30:39.771Z,1.6
2022-09-10T13:31:41.345Z,1.0
2022-09-10T13:32:53.037Z,0.9
2022-09-10T13:33:55.529Z,1.0
2022-09-10T13:34:57.963Z,1.0
2022-09-10T13:36:02.062Z,1.3
2022-09-10T13:36:50.073Z,1.6
2022-09-10T13:37:47.035Z,0.6
2022-09-10T13:38:49.552Z,0.7
2022-09-10T13:39:56.565Z,0.9
2022-09-10T13:40:59.030Z,0.8
2022-09-10T13:41:44.300Z,1.0
2022-09-10T13:42:49.539Z,0.9
2022-09-10T13:44:01.019Z,1.1
2022-09-10T13:44:57.977Z,1.0
2022-09-10T13:45:44.350Z,0.5
2022-09-10T13:46:44.200Z,1.1